createdAt,value
2023-03-20T00:01:48.953Z,41
2023-03-20T00:03:03.151Z,43
2023-03-20T00:04:17.317Z,42
2023-03-20T00:06:45.668Z,42
2023-03-20T00:07:59.633Z,40
2023-03-20T00:09:13.850Z,41
2023-03-20T00:11:42.020Z,40
2023-03-20T00:12:56.189Z,39
2023-03-20T00:14:10.277Z,40
2023-03-20T00:16:38.555Z,38
2023-03-20T00:17:52.817Z,39
2023-03-20T00:19:06.831Z,39
2023-03-20T00:20:21.086Z,38
2023-03-20T00:22:49.226Z,35
2023-03-20T00:24:03.378Z,36
2023-03-20T00:25:17.545Z,36
2023-03-20T00:27:45.840Z,36
2023-03-20T00:28:59.929Z,35
2023-03-20T00:30:14.036Z,36
2023-03-20T00:32:42.320Z,37
2023-03-20T00:33:56.432Z,36
2023-03-20T00:35:10.541Z,38
2023-03-20T00:37:38.916Z,39
2023-03-20T00:38:53.045Z,40
2023-03-20T00:40:07.102Z,40
2023-03-20T00:41:21.258Z,38
2023-03-20T00:43:49.592Z,38
2023-03-20T00:45:03.717Z,39
2023-03-20T00:46:17.810Z,39
2023-03-20T00:48:46.156Z,40
2023-03-20T00:50:00.257Z,39
2023-03-20T00:51:14.321Z,40
2023-03-20T00:53:42.616Z,40
2023-03-20T00:54:56.704Z,38
2023-03-20T00:56:10.817Z,38
2023-03-20T00:58:39.129Z,38
2023-03-20T00:59:53.239Z,37
2023-03-20T01:01:07.496Z,39
2023-03-20T01:02:21.511Z,39
2023-03-20T01:04:49.752Z,36
2023-03-20T01:06:03.964Z,37
2023-03-20T01:07:18.031Z,36
2023-03-20T01:09:46.301Z,35
2023-03-20T01:11:00.477Z,35
2023-03-20T01:12:14.723Z,35
2023-03-20T01:14:42.829Z,34
2023-03-20T01:15:56.962Z,33
2023-03-20T01:17:13.532Z,34
2023-03-20T01:18:25.225Z,34
2023-03-20T01:19:39.367Z,34
2023-03-20T01:20:53.538Z,34
2023-03-20T01:22:07.659Z,34
2023-03-20T01:23:21.764Z,34
2023-03-20T01:25:50.084Z,33
2023-03-20T01:27:04.177Z,33
2023-03-20T01:28:18.361Z,34
2023-03-20T01:30:46.542Z,33
2023-03-20T01:32:00.732Z,34
2023-03-20T01:33:15.079Z,32
2023-03-20T01:35:43.082Z,32
2023-03-20T01:36:57.264Z,33
2023-03-20T01:38:11.322Z,32
2023-03-20T01:40:39.712Z,33
2023-03-20T01:41:53.855Z,33
2023-03-20T01:43:07.892Z,33
2023-03-20T01:44:22.143Z,34
2023-03-20T01:48:04.444Z,34
2023-03-20T01:49:18.542Z,33
2023-03-20T01:51:46.824Z,31
2023-03-20T01:53:00.943Z,33
2023-03-20T01:54:15.100Z,35
2023-03-20T01:56:43.365Z,34
2023-03-20T01:57:57.541Z,36
2023-03-20T01:59:11.626Z,36
2023-03-20T02:01:39.945Z,36
2023-03-20T02:02:54.093Z,38
2023-03-20T02:04:08.180Z,37
2023-03-20T02:05:22.369Z,38
2023-03-20T02:07:50.941Z,38
2023-03-20T02:09:04.766Z,39
2023-03-20T02:10:18.931Z,38
2023-03-20T02:12:47.090Z,40
2023-03-20T02:14:01.239Z,39
2023-03-20T02:15:15.384Z,39
2023-03-20T02:17:43.633Z,39
2023-03-20T02:18:57.786Z,38
2023-03-20T02:20:11.883Z,39
2023-03-20T02:22:40.200Z,41
2023-03-20T02:23:54.325Z,38
2023-03-20T02:25:08.457Z,40
2023-03-20T02:26:22.600Z,40
2023-03-20T02:28:51.030Z,40
2023-03-20T02:30:05.054Z,38
2023-03-20T02:31:19.183Z,37
2023-03-20T02:33:47.342Z,38
2023-03-20T02:35:01.477Z,38
2023-03-20T02:36:15.779Z,37
2023-03-20T02:38:43.978Z,37
2023-03-20T02:39:58.026Z,37
2023-03-20T02:41:12.203Z,38
2023-03-20T02:42:26.287Z,38
2023-03-20T02:43:40.395Z,36
2023-03-20T02:44:54.574Z,35
2023-03-20T02:46:08.726Z,37
2023-03-20T02:47:22.854Z,36
2023-03-20T02:49:51.276Z,35
2023-03-20T02:51:05.241Z,36
2023-03-20T02:52:19.388Z,37
2023-03-20T02:54:47.616Z,37
2023-03-20T02:56:01.778Z,36
2023-03-20T02:57:15.892Z,36
2023-03-20T02:59:44.161Z,37
2023-03-20T03:00:58.370Z,36
2023-03-20T03:02:12.444Z,36
2023-03-20T03:04:40.653Z,36
2023-03-20T03:05:54.832Z,36
2023-03-20T03:07:08.959Z,35
2023-03-20T03:08:23.098Z,35
2023-03-20T03:10:51.427Z,36
2023-03-20T03:12:05.492Z,35
2023-03-20T03:13:19.623Z,35
2023-03-20T03:17:02.011Z,34
2023-03-20T03:18:16.181Z,34
2023-03-20T03:20:44.407Z,32
2023-03-20T03:21:58.537Z,33
2023-03-20T03:23:12.741Z,33
2023-03-20T03:25:40.990Z,33
2023-03-20T03:26:55.153Z,33
2023-03-20T03:28:09.251Z,34
2023-03-20T03:29:23.419Z,33
2023-03-20T03:31:51.583Z,33
2023-03-20T03:33:05.802Z,33
2023-03-20T03:34:19.990Z,33
2023-03-20T03:36:48.145Z,32
2023-03-20T03:38:02.289Z,32
2023-03-20T03:39:16.428Z,33
2023-03-20T03:41:44.686Z,32
2023-03-20T03:42:58.809Z,31
2023-03-20T03:44:12.943Z,32
2023-03-20T03:46:44.080Z,32
2023-03-20T03:47:55.354Z,33
2023-03-20T03:49:09.509Z,32
2023-03-20T03:50:23.661Z,33
2023-03-20T03:52:51.881Z,31
2023-03-20T03:54:06.060Z,30
2023-03-20T03:55:20.191Z,33
2023-03-20T03:57:48.406Z,33
2023-03-20T03:59:02.535Z,32
2023-03-20T04:00:16.782Z,31
2023-03-20T04:02:44.930Z,32
2023-03-20T04:03:59.078Z,31
2023-03-20T04:05:13.239Z,32
2023-03-20T04:07:41.484Z,31
2023-03-20T04:08:55.609Z,27
2023-03-20T04:10:09.754Z,29
2023-03-20T04:12:38.013Z,25
2023-03-20T04:13:52.148Z,28
2023-03-20T04:15:06.314Z,26
2023-03-20T04:16:20.548Z,28
2023-03-20T04:18:48.718Z,26
2023-03-20T04:20:02.893Z,25
2023-03-20T04:21:17.009Z,26
2023-03-20T04:23:45.282Z,25
2023-03-20T04:24:59.374Z,26
2023-03-20T04:26:13.547Z,26
2023-03-20T04:28:41.733Z,25
2023-03-20T04:29:55.903Z,25
2023-03-20T04:31:10.148Z,25
2023-03-20T04:32:24.232Z,23
2023-03-20T04:34:52.518Z,26
2023-03-20T04:36:06.575Z,25
2023-03-20T04:37:20.754Z,26
2023-03-20T04:39:48.958Z,25
2023-03-20T04:41:03.078Z,25
2023-03-20T04:42:17.199Z,25
2023-03-20T04:44:45.646Z,24
2023-03-20T04:45:59.647Z,26
2023-03-20T04:47:13.728Z,24
2023-03-20T04:49:41.981Z,25
2023-03-20T04:50:56.159Z,25
2023-03-20T04:52:10.280Z,25
2023-03-20T04:54:38.566Z,26
2023-03-20T04:55:52.681Z,27
2023-03-20T04:57:06.799Z,27
2023-03-20T04:58:20.914Z,27
2023-03-20T05:00:49.244Z,28
2023-03-20T05:02:03.329Z,29
2023-03-20T05:03:17.489Z,33
2023-03-20T05:05:45.850Z,30
2023-03-20T05:06:59.995Z,30
2023-03-20T05:08:14.008Z,31
2023-03-20T05:10:42.740Z,29
2023-03-20T05:11:56.397Z,29
2023-03-20T05:13:10.517Z,28
2023-03-20T05:15:38.861Z,30
2023-03-20T05:16:52.950Z,30
2023-03-20T05:18:07.061Z,31
2023-03-20T05:19:21.185Z,29
2023-03-20T05:21:49.540Z,26
2023-03-20T05:23:06.211Z,26
2023-03-20T05:24:17.741Z,28
2023-03-20T05:26:46.271Z,26
2023-03-20T05:28:00.237Z,27
2023-03-20T05:29:14.358Z,27
2023-03-20T05:31:42.853Z,26
2023-03-20T05:32:56.721Z,27
2023-03-20T05:34:10.778Z,27
2023-03-20T05:36:39.076Z,26
2023-03-20T05:37:53.188Z,27
2023-03-20T05:39:07.342Z,26
2023-03-20T05:40:21.428Z,25
2023-03-20T05:42:49.994Z,26
2023-03-20T05:44:03.918Z,26
2023-03-20T05:45:18.049Z,24
2023-03-20T05:47:46.459Z,25
2023-03-20T05:49:00.362Z,25
2023-03-20T05:50:14.589Z,24
2023-03-20T05:52:42.838Z,24
2023-03-20T05:53:56.925Z,25
2023-03-20T05:55:11.040Z,24
2023-03-20T05:56:25.318Z,23
2023-03-20T05:57:39.428Z,25
2023-03-20T05:58:53.568Z,24
2023-03-20T06:00:07.596Z,25
2023-03-20T06:01:21.898Z,25
2023-03-20T06:03:50.051Z,26
2023-03-20T06:05:04.112Z,25
2023-03-20T06:06:18.339Z,25
2023-03-20T06:08:46.542Z,25
2023-03-20T06:10:00.632Z,25
2023-03-20T06:11:14.826Z,25
2023-03-20T06:13:43.216Z,26
2023-03-20T06:14:57.281Z,25
2023-03-20T06:16:11.348Z,25
2023-03-20T06:18:39.656Z,26
2023-03-20T06:19:53.803Z,26
2023-03-20T06:21:08.065Z,27
2023-03-20T06:22:22.010Z,26
2023-03-20T06:24:50.324Z,25
2023-03-20T06:26:04.504Z,24
2023-03-20T06:27:18.638Z,26
2023-03-20T06:29:46.773Z,25
2023-03-20T06:31:00.965Z,24
2023-03-20T06:32:15.072Z,25
2023-03-20T06:34:43.306Z,25
2023-03-20T06:35:57.499Z,24
2023-03-20T06:37:11.607Z,24
2023-03-20T06:39:39.912Z,25
2023-03-20T06:40:54.020Z,26
2023-03-20T06:42:08.189Z,23
2023-03-20T06:43:22.248Z,20
2023-03-20T06:45:50.505Z,24
2023-03-20T06:47:04.798Z,23
2023-03-20T06:48:18.854Z,23
2023-03-20T06:50:47.039Z,22
2023-03-20T06:52:01.289Z,23
2023-03-20T06:53:15.334Z,23
2023-03-20T06:55:43.649Z,22
2023-03-20T06:56:57.717Z,22
2023-03-20T06:58:11.870Z,23
2023-03-20T07:00:40.133Z,22
2023-03-20T07:01:54.360Z,22
2023-03-20T07:03:08.442Z,22
2023-03-20T07:04:22.599Z,22
2023-03-20T07:06:50.812Z,22
2023-03-20T07:08:04.969Z,22
2023-03-20T07:09:19.047Z,23
2023-03-20T07:11:47.309Z,21
2023-03-20T07:13:01.435Z,21
2023-03-20T07:14:15.647Z,22
2023-03-20T07:16:43.923Z,21
2023-03-20T07:17:58.090Z,21
2023-03-20T07:19:12.147Z,21
2023-03-20T07:20:26.261Z,20
2023-03-20T07:21:40.373Z,23
2023-03-20T07:22:54.551Z,22
2023-03-20T07:24:08.644Z,21
2023-03-20T07:25:41.545Z,20
2023-03-20T07:27:51.047Z,21
2023-03-20T07:29:05.180Z,21
2023-03-20T07:30:19.322Z,21
2023-03-20T07:32:47.655Z,22
2023-03-20T07:34:01.748Z,21
2023-03-20T07:35:15.914Z,21
2023-03-20T07:37:44.112Z,21
2023-03-20T07:38:58.320Z,21
2023-03-20T07:40:12.449Z,22
2023-03-20T07:42:40.632Z,23
2023-03-20T07:43:54.881Z,23
2023-03-20T07:45:08.925Z,22
2023-03-20T07:46:23.330Z,22
2023-03-20T07:48:51.305Z,23
2023-03-20T07:50:07.764Z,23
2023-03-20T07:51:19.614Z,22
2023-03-20T07:53:47.853Z,24
2023-03-20T07:55:02.014Z,23
2023-03-20T07:56:16.098Z,23
2023-03-20T07:58:44.383Z,23
2023-03-20T07:59:58.572Z,21
2023-03-20T08:01:12.698Z,21
2023-03-20T08:03:41.044Z,20
2023-03-20T08:04:55.103Z,21
2023-03-20T08:06:09.259Z,20
2023-03-20T08:07:23.422Z,19
2023-03-20T08:09:51.546Z,19
2023-03-20T08:11:05.727Z,18
2023-03-20T08:12:19.849Z,18
2023-03-20T08:14:48.119Z,18
2023-03-20T08:16:02.253Z,17
2023-03-20T08:17:18.727Z,16
2023-03-20T08:19:44.637Z,16
2023-03-20T08:20:58.806Z,16
2023-03-20T08:22:12.940Z,15
2023-03-20T08:24:41.192Z,16
2023-03-20T08:25:55.332Z,14
2023-03-20T08:27:09.598Z,15
2023-03-20T08:28:36.332Z,14
2023-03-20T08:30:51.905Z,13
2023-03-20T08:32:05.993Z,13
2023-03-20T08:33:20.172Z,13
2023-03-20T08:35:48.720Z,13
2023-03-20T08:37:02.519Z,11
2023-03-20T08:38:16.666Z,12
2023-03-20T08:40:44.905Z,12
2023-03-20T08:42:01.001Z,11
2023-03-20T08:43:13.295Z,12
2023-03-20T08:45:41.474Z,12
2023-03-20T08:46:55.586Z,11
2023-03-20T08:48:09.761Z,12
2023-03-20T08:49:23.851Z,11
2023-03-20T08:51:52.108Z,10
2023-03-20T08:53:06.253Z,10
2023-03-20T08:54:20.372Z,10
2023-03-20T08:56:49.166Z,9
2023-03-20T08:58:02.868Z,9
2023-03-20T08:59:16.924Z,8
2023-03-20T09:01:49.647Z,8
2023-03-20T09:02:59.390Z,9
2023-03-20T09:04:13.472Z,8
2023-03-20T09:06:41.702Z,9
2023-03-20T09:07:55.848Z,10
2023-03-20T09:09:10.001Z,10
2023-03-20T09:10:24.211Z,10
2023-03-20T09:12:52.397Z,10
2023-03-20T09:14:06.519Z,10
2023-03-20T09:15:20.657Z,9
2023-03-20T09:17:48.955Z,10
2023-03-20T09:19:03.091Z,10
2023-03-20T09:20:17.189Z,9
2023-03-20T09:22:45.424Z,10
2023-03-20T09:23:59.641Z,9
2023-03-20T09:25:13.778Z,9
2023-03-20T09:27:42.030Z,8
2023-03-20T09:28:56.148Z,7
2023-03-20T09:30:10.218Z,6
2023-03-20T09:32:38.535Z,5
2023-03-20T09:33:52.749Z,5
2023-03-20T09:35:06.792Z,6
2023-03-20T09:36:20.891Z,5
2023-03-20T09:38:49.191Z,6
2023-03-20T09:40:03.339Z,7
2023-03-20T09:41:17.445Z,6
2023-03-20T09:43:45.738Z,6
2023-03-20T09:44:59.886Z,6
2023-03-20T09:46:14.060Z,6
2023-03-20T09:48:42.299Z,7
2023-03-20T09:49:56.386Z,6
2023-03-20T09:51:10.555Z,5
2023-03-20T09:53:38.782Z,6
2023-03-20T09:54:54.746Z,6
2023-03-20T09:56:07.050Z,6
2023-03-20T09:57:21.165Z,6
2023-03-20T09:59:49.585Z,5
2023-03-20T10:01:03.577Z,6
2023-03-20T10:02:17.700Z,7
2023-03-20T10:04:46.120Z,6
2023-03-20T10:06:00.226Z,6
2023-03-20T10:07:14.250Z,7
2023-03-20T10:09:42.575Z,7
2023-03-20T10:10:56.649Z,6
2023-03-20T10:12:10.757Z,7
2023-03-20T10:13:25.002Z,7
2023-03-20T10:16:01.472Z,6
2023-03-20T10:17:15.476Z,6
2023-03-20T10:19:43.779Z,6
2023-03-20T10:20:57.966Z,6
2023-03-20T10:22:12.038Z,6
2023-03-20T10:24:40.263Z,6
2023-03-20T10:25:54.468Z,6
2023-03-20T10:27:08.764Z,5
2023-03-20T10:28:22.693Z,6
2023-03-20T10:30:50.959Z,5
2023-03-20T10:32:05.231Z,6
2023-03-20T10:33:19.271Z,6
2023-03-20T10:35:47.470Z,6
2023-03-20T10:37:01.626Z,6
2023-03-20T10:38:15.769Z,5
2023-03-20T10:40:44.098Z,5
2023-03-20T10:41:58.165Z,6
2023-03-20T10:43:12.348Z,5
2023-03-20T10:45:40.534Z,5
2023-03-20T10:46:54.818Z,5
2023-03-20T10:48:08.938Z,5
2023-03-20T10:49:23.024Z,5
2023-03-20T10:51:51.214Z,6
2023-03-20T10:53:05.347Z,5
2023-03-20T10:54:19.488Z,5
2023-03-20T10:56:47.731Z,5
2023-03-20T10:58:01.894Z,5
2023-03-20T10:59:16.010Z,5
2023-03-20T11:01:44.331Z,6
2023-03-20T11:02:58.407Z,5
2023-03-20T11:04:12.679Z,5
2023-03-20T11:06:40.822Z,6
2023-03-20T11:07:54.996Z,6
2023-03-20T11:09:09.184Z,5
2023-03-20T11:10:23.217Z,5
2023-03-20T11:12:51.488Z,6
2023-03-20T11:14:05.607Z,6
2023-03-20T11:15:19.762Z,6
2023-03-20T11:17:48.015Z,6
2023-03-20T11:19:04.782Z,5
2023-03-20T11:20:16.334Z,7
2023-03-20T11:22:44.559Z,5
2023-03-20T11:23:58.695Z,5
2023-03-20T11:25:12.833Z,6
2023-03-20T11:27:41.062Z,5
2023-03-20T11:28:57.877Z,5
2023-03-20T11:30:09.409Z,5
2023-03-20T11:31:23.692Z,6
2023-03-20T11:33:51.740Z,7
2023-03-20T11:35:05.888Z,5
2023-03-20T11:36:20.096Z,5
2023-03-20T11:38:48.275Z,5
2023-03-20T11:40:02.416Z,5
2023-03-20T11:41:16.549Z,5
2023-03-20T11:43:44.806Z,6
2023-03-20T11:44:58.951Z,5
2023-03-20T11:46:13.262Z,6
2023-03-20T11:48:41.337Z,7
2023-03-20T11:49:55.497Z,6
2023-03-20T11:51:09.615Z,6
2023-03-20T11:52:23.805Z,6
2023-03-20T11:54:52.036Z,5
2023-03-20T11:56:06.134Z,5
2023-03-20T11:57:20.305Z,6
2023-03-20T11:59:48.540Z,5
2023-03-20T12:01:02.739Z,5
2023-03-20T12:02:16.890Z,5
2023-03-20T12:04:45.067Z,5
2023-03-20T12:05:59.270Z,4
2023-03-20T12:07:13.377Z,5
2023-03-20T12:09:41.573Z,5
2023-03-20T12:10:55.743Z,5
2023-03-20T12:12:09.963Z,5
2023-03-20T12:13:24.043Z,5
2023-03-20T12:15:52.448Z,5
2023-03-20T12:17:06.420Z,5
2023-03-20T12:18:20.515Z,5
2023-03-20T12:20:48.812Z,5
2023-03-20T12:22:02.982Z,5
2023-03-20T12:23:17.069Z,5
2023-03-20T12:25:45.347Z,5
2023-03-20T12:26:59.515Z,5
2023-03-20T12:28:13.647Z,5
2023-03-20T12:30:41.874Z,5
2023-03-20T12:31:56.019Z,6
2023-03-20T12:33:10.240Z,5
2023-03-20T12:35:38.492Z,4
2023-03-20T12:36:52.614Z,4
2023-03-20T12:38:06.676Z,5
2023-03-20T12:39:20.806Z,5
2023-03-20T12:41:49.069Z,4
2023-03-20T12:43:03.219Z,4
2023-03-20T12:44:17.357Z,4
2023-03-20T12:46:45.700Z,4
2023-03-20T12:47:59.841Z,4
2023-03-20T12:49:13.880Z,4
2023-03-20T12:51:42.161Z,3
2023-03-20T12:52:56.277Z,3
2023-03-20T12:54:10.440Z,3
2023-03-20T12:56:38.710Z,3
2023-03-20T12:57:52.874Z,4
2023-03-20T12:59:07.160Z,6
2023-03-20T13:00:21.093Z,6
2023-03-20T13:02:49.445Z,3
2023-03-20T13:04:03.471Z,3
2023-03-20T13:05:17.675Z,3
2023-03-20T13:07:45.852Z,3
2023-03-20T13:09:00.125Z,4
2023-03-20T13:10:14.169Z,3
2023-03-20T13:12:42.528Z,3
2023-03-20T13:13:56.533Z,3
2023-03-20T13:15:10.660Z,3
2023-03-20T13:17:38.977Z,3
2023-03-20T13:18:53.094Z,3
2023-03-20T13:20:07.202Z,2
2023-03-20T13:21:21.308Z,2
2023-03-20T13:23:49.657Z,2
2023-03-20T13:25:03.739Z,2
2023-03-20T13:26:17.932Z,2
2023-03-20T13:27:32.012Z,2
2023-03-20T13:28:46.244Z,2
2023-03-20T13:30:00.321Z,2
2023-03-20T13:31:14.512Z,2
2023-03-20T13:33:42.752Z,2
2023-03-20T13:34:56.813Z,2
2023-03-20T13:36:10.984Z,2
2023-03-20T13:38:39.293Z,2
2023-03-20T13:39:53.452Z,2
2023-03-20T13:41:07.462Z,2
2023-03-20T13:42:21.573Z,2
2023-03-20T13:44:49.906Z,2
2023-03-20T13:46:04.069Z,2
2023-03-20T13:47:18.159Z,2
2023-03-20T13:49:46.510Z,2
2023-03-20T13:51:02.134Z,2
2023-03-20T13:52:14.646Z,2
2023-03-20T13:54:43.046Z,2
2023-03-20T13:55:57.078Z,2
2023-03-20T13:57:11.192Z,2
2023-03-20T13:59:39.531Z,2
2023-03-20T14:00:53.698Z,2
2023-03-20T14:02:07.849Z,2
2023-03-20T14:03:21.828Z,2
2023-03-20T14:05:50.236Z,2
2023-03-20T14:07:04.411Z,2
2023-03-20T14:08:18.510Z,2
2023-03-20T14:10:46.892Z,2
2023-03-20T14:12:00.780Z,2
2023-03-20T14:13:14.935Z,4
2023-03-20T14:15:43.240Z,3
2023-03-20T14:16:57.400Z,3
2023-03-20T14:18:11.420Z,3
2023-03-20T14:20:39.881Z,2
2023-03-20T14:21:53.963Z,3
2023-03-20T14:23:07.982Z,2
2023-03-20T14:24:22.109Z,3
2023-03-20T14:26:50.366Z,3
2023-03-20T14:28:04.619Z,3
2023-03-20T14:29:18.725Z,2
2023-03-20T14:31:46.953Z,3
2023-03-20T14:33:01.142Z,3
2023-03-20T14:34:15.165Z,3
2023-03-20T14:36:43.569Z,4
2023-03-20T14:37:57.565Z,3
2023-03-20T14:39:11.698Z,3
2023-03-20T14:41:40.033Z,2
2023-03-20T14:42:54.113Z,2
2023-03-20T14:44:08.244Z,3
2023-03-20T14:45:22.409Z,2
2023-03-20T14:47:50.717Z,4
2023-03-20T14:49:04.852Z,4
2023-03-20T14:50:18.970Z,3
2023-03-20T14:52:47.173Z,2
2023-03-20T14:54:01.292Z,2
2023-03-20T14:55:15.463Z,2
2023-03-20T14:57:55.650Z,2
2023-03-20T14:58:57.915Z,2
2023-03-20T15:00:11.973Z,3
2023-03-20T15:02:40.241Z,2
2023-03-20T15:03:54.372Z,2
2023-03-20T15:05:08.556Z,2
2023-03-20T15:06:22.651Z,3
2023-03-20T15:08:50.882Z,2
2023-03-20T15:10:05.143Z,2
2023-03-20T15:11:19.214Z,2
2023-03-20T15:13:47.436Z,3
2023-03-20T15:15:01.556Z,2
2023-03-20T15:16:15.727Z,2
2023-03-20T15:18:43.984Z,2
2023-03-20T15:19:58.103Z,4
2023-03-20T15:21:12.263Z,4
2023-03-20T15:23:40.546Z,3
2023-03-20T15:24:54.636Z,4
2023-03-20T15:26:08.844Z,3
2023-03-20T15:27:23.014Z,2
2023-03-20T15:29:51.150Z,3
2023-03-20T15:31:05.314Z,3
2023-03-20T15:32:19.563Z,3
2023-03-20T15:34:47.758Z,4
2023-03-20T15:36:02.071Z,5
2023-03-20T15:37:16.129Z,4
2023-03-20T15:39:44.268Z,4
2023-03-20T15:40:58.456Z,4
2023-03-20T15:42:12.583Z,3
2023-03-20T15:44:40.815Z,4
2023-03-20T15:46:02.994Z,3
2023-03-20T15:47:09.125Z,2
2023-03-20T15:48:23.250Z,2
2023-03-20T15:50:51.432Z,3
2023-03-20T15:52:05.598Z,3
2023-03-20T15:53:19.757Z,4
2023-03-20T15:55:47.970Z,4
2023-03-20T15:57:02.121Z,4
2023-03-20T15:58:16.258Z,4
2023-03-20T16:00:44.618Z,5
2023-03-20T16:01:58.714Z,4
2023-03-20T16:03:12.786Z,3
2023-03-20T16:05:41.033Z,3
2023-03-20T16:06:55.186Z,5
2023-03-20T16:08:09.334Z,4
2023-03-20T16:09:23.466Z,3
2023-03-20T16:11:51.734Z,4
2023-03-20T16:13:05.846Z,3
2023-03-20T16:14:20.061Z,2
2023-03-20T16:16:48.249Z,2
2023-03-20T16:18:02.401Z,2
2023-03-20T16:19:16.526Z,3
2023-03-20T16:21:44.846Z,4
2023-03-20T16:22:58.906Z,3
2023-03-20T16:24:13.131Z,3
2023-03-20T16:26:41.287Z,2
2023-03-20T16:27:55.448Z,3
2023-03-20T16:29:09.620Z,2
2023-03-20T16:30:23.828Z,3
2023-03-20T16:32:52.069Z,3
2023-03-20T16:34:06.120Z,3
2023-03-20T16:35:20.222Z,2
2023-03-20T16:37:48.554Z,2
2023-03-20T16:39:02.758Z,2
2023-03-20T16:40:16.786Z,3
2023-03-20T16:42:45.052Z,2
2023-03-20T16:43:59.432Z,3
2023-03-20T16:45:13.320Z,3
2023-03-20T16:47:41.547Z,2
2023-03-20T16:48:55.723Z,3
2023-03-20T16:50:09.834Z,3
2023-03-20T16:51:23.982Z,3
2023-03-20T16:53:52.410Z,2
2023-03-20T16:55:06.397Z,2
2023-03-20T16:56:20.469Z,2
2023-03-20T16:58:48.773Z,2
2023-03-20T17:00:02.909Z,3
2023-03-20T17:01:17.088Z,3
2023-03-20T17:03:45.331Z,4
2023-03-20T17:04:59.474Z,4
2023-03-20T17:06:13.618Z,5
2023-03-20T17:08:41.855Z,3
2023-03-20T17:09:56.186Z,3
2023-03-20T17:11:10.162Z,3
2023-03-20T17:12:24.286Z,4
2023-03-20T17:14:52.590Z,6
2023-03-20T17:16:06.665Z,4
2023-03-20T17:17:20.733Z,3
2023-03-20T17:19:49.294Z,3
2023-03-20T17:21:03.227Z,3
2023-03-20T17:22:17.375Z,3
2023-03-20T17:24:45.556Z,2
2023-03-20T17:25:59.839Z,2
2023-03-20T17:27:13.942Z,2
2023-03-20T17:29:42.107Z,4
2023-03-20T17:30:56.260Z,3
2023-03-20T17:32:10.448Z,3
2023-03-20T17:33:24.523Z,3
2023-03-20T17:35:52.911Z,2
2023-03-20T17:37:06.917Z,3
2023-03-20T17:38:21.009Z,2
2023-03-20T17:40:49.468Z,3
2023-03-20T17:42:03.434Z,3
2023-03-20T17:43:17.894Z,3
2023-03-20T17:45:45.897Z,3
2023-03-20T17:47:00.092Z,3
2023-03-20T17:48:14.182Z,3
2023-03-20T17:50:42.472Z,3
2023-03-20T17:51:56.508Z,4
2023-03-20T17:53:10.586Z,4
2023-03-20T17:55:38.915Z,3
2023-03-20T17:56:53.050Z,4
2023-03-20T17:58:07.204Z,4
2023-03-20T17:59:21.264Z,5
2023-03-20T18:01:49.739Z,5
2023-03-20T18:03:03.722Z,4
2023-03-20T18:04:17.837Z,4
2023-03-20T18:05:31.961Z,4
2023-03-20T18:06:47.852Z,4
2023-03-20T18:08:00.277Z,4
2023-03-20T18:09:14.406Z,4
2023-03-20T18:11:42.708Z,3
2023-03-20T18:12:56.739Z,3
2023-03-20T18:14:10.871Z,3
2023-03-20T18:16:39.249Z,3
2023-03-20T18:17:53.437Z,3
2023-03-20T18:19:07.631Z,3
2023-03-20T18:20:21.536Z,3
2023-03-20T18:22:49.839Z,3
2023-03-20T18:24:03.972Z,4
2023-03-20T18:25:18.111Z,4
2023-03-20T18:27:46.460Z,5
2023-03-20T18:29:00.482Z,5
2023-03-20T18:30:14.620Z,4
2023-03-20T18:32:42.966Z,4
2023-03-20T18:33:57.065Z,4
2023-03-20T18:35:11.191Z,4
2023-03-20T18:37:39.490Z,4
2023-03-20T18:38:53.646Z,3
2023-03-20T18:40:07.690Z,3
2023-03-20T18:41:21.863Z,4
2023-03-20T18:43:50.154Z,3
2023-03-20T18:45:04.317Z,3
2023-03-20T18:46:18.396Z,3
2023-03-20T18:48:46.873Z,3
2023-03-20T18:50:04.885Z,3
2023-03-20T18:51:14.936Z,3
2023-03-20T18:53:43.230Z,3
2023-03-20T18:54:57.321Z,4
2023-03-20T18:56:11.454Z,4
2023-03-20T18:58:39.679Z,4
2023-03-20T18:59:53.853Z,4
2023-03-20T19:01:08.000Z,4
2023-03-20T19:02:22.126Z,3
2023-03-20T19:04:50.364Z,4
2023-03-20T19:06:04.615Z,3
2023-03-20T19:07:18.732Z,4
2023-03-20T19:09:47.005Z,4
2023-03-20T19:11:01.255Z,3
2023-03-20T19:12:15.190Z,3
2023-03-20T19:14:43.568Z,3
2023-03-20T19:15:57.637Z,3
2023-03-20T19:17:11.784Z,4
2023-03-20T19:19:40.094Z,3
2023-03-20T19:20:54.149Z,3
2023-03-20T19:22:13.071Z,2
2023-03-20T19:23:22.502Z,3
2023-03-20T19:25:50.666Z,3
2023-03-20T19:27:04.844Z,2
2023-03-20T19:28:21.489Z,3
2023-03-20T19:30:47.323Z,3
2023-03-20T19:32:01.428Z,3
2023-03-20T19:33:15.472Z,3
2023-03-20T19:36:11.733Z,3
2023-03-20T19:36:57.862Z,3
2023-03-20T19:38:11.969Z,3
2023-03-20T19:40:43.036Z,4
2023-03-20T19:41:54.434Z,3
2023-03-20T19:43:08.564Z,4
2023-03-20T19:44:22.669Z,4
2023-03-20T19:46:50.946Z,3
2023-03-20T19:48:05.040Z,4
2023-03-20T19:49:19.945Z,4
2023-03-20T19:51:47.446Z,3
2023-03-20T19:53:01.546Z,3
2023-03-20T19:54:15.755Z,3
2023-03-20T19:56:44.067Z,3
2023-03-20T19:57:58.114Z,3
2023-03-20T19:59:14.914Z,4
2023-03-20T20:01:40.535Z,4
2023-03-20T20:02:54.941Z,3
2023-03-20T20:04:08.808Z,4
2023-03-20T20:05:23.357Z,4
2023-03-20T20:09:05.320Z,4
2023-03-20T20:10:19.464Z,3
2023-03-20T20:12:47.656Z,4
2023-03-20T20:14:08.167Z,4
2023-03-20T20:15:15.994Z,4
2023-03-20T20:17:44.304Z,4
2023-03-20T20:18:58.423Z,3
2023-03-20T20:20:12.500Z,3
2023-03-20T20:22:40.724Z,3
2023-03-20T20:23:55.028Z,3
2023-03-20T20:25:09.048Z,3
2023-03-20T20:26:23.169Z,3
2023-03-20T20:28:51.502Z,3
2023-03-20T20:30:05.565Z,3
2023-03-20T20:31:19.829Z,4
2023-03-20T20:34:02.233Z,4
2023-03-20T20:38:50.639Z,3
2023-03-20T20:39:58.645Z,3
2023-03-20T20:41:12.796Z,3
2023-03-20T20:44:14.245Z,3
2023-03-20T20:44:55.187Z,3
2023-03-20T20:46:09.388Z,3
2023-03-20T20:47:23.473Z,3
2023-03-20T20:49:51.727Z,3
2023-03-20T20:51:05.854Z,3
2023-03-20T20:52:20.027Z,4
2023-03-20T20:54:48.438Z,3
2023-03-20T20:56:02.662Z,3
2023-03-20T20:57:16.476Z,3
2023-03-20T20:59:44.801Z,3
2023-03-20T21:00:58.949Z,3
2023-03-20T21:02:13.257Z,3
2023-03-20T21:04:41.336Z,3
2023-03-20T21:05:55.411Z,3
2023-03-20T21:07:11.236Z,3
2023-03-20T21:08:23.708Z,3
2023-03-20T21:10:51.977Z,3
2023-03-20T21:12:06.129Z,3
2023-03-20T21:13:20.275Z,3
2023-03-20T21:15:48.555Z,5
2023-03-20T21:17:02.669Z,5
2023-03-20T21:18:16.793Z,4
2023-03-20T21:20:45.049Z,6
2023-03-20T21:21:59.215Z,5
2023-03-20T21:23:13.642Z,4
2023-03-20T21:25:44.624Z,4
2023-03-20T21:26:55.689Z,4
2023-03-20T21:28:10.004Z,4
2023-03-20T21:29:24.082Z,5
2023-03-20T21:31:52.299Z,7
2023-03-20T21:33:06.411Z,6
2023-03-20T21:34:20.491Z,5
2023-03-20T21:36:49.481Z,5
2023-03-20T21:39:17.087Z,5
2023-03-20T21:41:45.326Z,5
2023-03-20T21:42:59.511Z,4
2023-03-20T21:44:17.759Z,4
2023-03-20T21:48:33.464Z,6
2023-03-20T21:52:23.924Z,4
2023-03-20T21:53:57.075Z,3
2023-03-20T21:55:00.872Z,4
2023-03-20T21:56:17.030Z,4
2023-03-20T21:58:36.527Z,3
2023-03-20T21:59:43.055Z,3
2023-03-20T22:01:12.257Z,3
2023-03-20T22:02:45.769Z,4
2023-03-20T22:04:54.975Z,3
2023-03-20T22:05:53.131Z,3
2023-03-20T22:08:26.578Z,3
2023-03-20T22:13:38.727Z,4
2023-03-20T22:14:49.323Z,3
2023-03-20T22:15:46.270Z,3
2023-03-20T22:24:31.142Z,3
2023-03-20T22:25:39.095Z,3
2023-03-20T22:27:10.831Z,3
2023-03-20T22:29:28.639Z,3
2023-03-20T22:30:49.393Z,3
2023-03-20T22:31:48.073Z,4
2023-03-20T22:34:25.861Z,3
2023-03-20T22:35:47.096Z,5
2023-03-20T22:36:56.240Z,4
2023-03-20T22:38:02.592Z,4
2023-03-20T22:42:53.233Z,6
2023-03-20T22:45:03.789Z,4
2023-03-20T22:46:16.760Z,5
2023-03-20T22:47:14.479Z,4
2023-03-20T22:49:42.738Z,4
2023-03-20T22:50:56.763Z,4
2023-03-20T22:52:26.466Z,4
2023-03-20T22:54:39.175Z,5
2023-03-20T22:55:53.257Z,5
2023-03-20T22:57:07.552Z,5
2023-03-20T22:58:21.585Z,4
2023-03-20T23:00:49.856Z,6
2023-03-20T23:02:03.979Z,3
2023-03-20T23:03:33.514Z,5
2023-03-20T23:05:46.408Z,4
2023-03-20T23:07:00.502Z,5
2023-03-20T23:08:14.689Z,5
2023-03-20T23:10:42.931Z,5
2023-03-20T23:11:57.049Z,6
2023-03-20T23:13:11.236Z,7
2023-03-20T23:14:28.358Z,5
2023-03-20T23:15:39.467Z,4
2023-03-20T23:16:53.677Z,5
2023-03-20T23:18:07.727Z,4
2023-03-20T23:19:22.106Z,4
2023-03-20T23:21:50.212Z,4
2023-03-20T23:23:04.362Z,4
2023-03-20T23:24:18.463Z,4
2023-03-20T23:26:46.833Z,4
2023-03-20T23:28:00.728Z,4
2023-03-20T23:29:15.026Z,4
2023-03-20T23:31:43.225Z,6
2023-03-20T23:32:57.330Z,4
2023-03-20T23:34:11.440Z,4
2023-03-20T23:36:39.781Z,31
2023-03-20T23:37:53.889Z,13
2023-03-20T23:40:22.089Z,7
2023-03-20T23:42:50.401Z,4
2023-03-20T23:44:04.554Z,3
2023-03-20T23:45:20.786Z,4
2023-03-20T23:47:47.026Z,4
2023-03-20T23:49:01.048Z,4
2023-03-20T23:50:26.296Z,3